Time;durP1;ratioP1;P1;durP2;ratioP2;P2;SDS_P1;SDS_P2;PMS_P1;PMS_P2;Temp;Humidity;BMP_temperature;BMP_pressure;BME280_temperature;BME280_humidity;BME280_pressure;Samples;Min_cycle;Max_cycle;Signal;HPM_P1;HPM_P2
2024/01/12 00:00:28;;;;;;;67.07;45.13;;;2.40;96.00;;;;;;5025596;28;20540;-76
2024/01/12 00:02:53;;;;;;;67.15;44.85;;;2.40;96.00;;;;;;5032939;28;20106;-76
2024/01/12 00:05:19;;;;;;;70.43;47.85;;;2.40;96.00;;;;;;5029738;28;20025;-75
2024/01/12 00:07:44;;;;;;;74.10;51.17;;;2.40;96.00;;;;;;5029239;28;20889;-76
2024/01/12 00:10:10;;;;;;;77.72;52.15;;;2.40;96.00;;;;;;5034796;28;20456;-75
2024/01/12 00:12:36;;;;;;;75.70;51.67;;;2.40;95.90;;;;;;5028743;28;20034;-75
2024/01/12 00:15:03;;;;;;;79.75;55.03;;;2.40;96.00;;;;;;5029181;28;20052;-77
2024/01/12 00:17:28;;;;;;;80.18;53.80;;;2.40;96.00;;;;;;5037828;28;20147;-78
2024/01/12 00:19:54;;;;;;;90.63;62.72;;;2.40;96.00;;;;;;5028719;28;20507;-77
2024/01/12 00:22:20;;;;;;;87.28;57.67;;;2.40;96.00;;;;;;5037010;28;21129;-77
2024/01/12 00:24:46;;;;;;;75.00;49.70;;;2.40;96.10;;;;;;5029173;28;20333;-78
2024/01/12 00:27:11;;;;;;;75.57;50.28;;;2.50;96.20;;;;;;5036789;28;20087;-77
2024/01/12 00:29:37;;;;;;;70.22;48.83;;;2.50;96.20;;;;;;5033910;28;20413;-77
2024/01/12 00:32:05;;;;;;;69.35;47.33;;;2.50;96.20;;;;;;5033483;28;20044;-78
2024/01/12 00:34:32;;;;;;;69.90;46.85;;;2.50;96.20;;;;;;5029783;28;20045;-77
2024/01/12 00:36:57;;;;;;;70.00;46.30;;;2.60;96.20;;;;;;5022427;28;20436;-77
2024/01/12 00:39:23;;;;;;;68.82;44.38;;;2.60;96.20;;;;;;5028092;28;20681;-75
2024/01/12 00:41:50;;;;;;;66.55;43.40;;;2.60;96.20;;;;;;5044369;28;20025;-76
2024/01/12 00:44:18;;;;;;;64.13;40.35;;;2.60;96.30;;;;;;5032826;28;20057;-75
2024/01/12 00:46:50;;;;;;;58.90;39.85;;;2.60;96.30;;;;;;5032538;28;20028;-76
2024/01/12 00:49:17;;;;;;;64.63;40.17;;;2.70;96.40;;;;;;5033323;28;20036;-76
2024/01/12 00:51:43;;;;;;;59.05;39.80;;;2.70;96.40;;;;;;5039330;28;20405;-76
2024/01/12 00:54:09;;;;;;;62.65;38.30;;;2.70;96.30;;;;;;5038232;28;20029;-76
2024/01/12 00:56:34;;;;;;;66.80;41.92;;;2.70;96.40;;;;;;5034450;28;20052;-76
2024/01/12 00:59:00;;;;;;;65.05;40.78;;;2.70;96.40;;;;;;5033248;28;20037;-76
2024/01/12 01:01:26;;;;;;;58.72;39.70;;;2.70;96.40;;;;;;5036091;28;20040;-76
2024/01/12 01:03:51;;;;;;;56.67;38.90;;;2.70;96.40;;;;;;5035304;28;20870;-75
2024/01/12 01:06:17;;;;;;;56.92;35.85;;;2.70;96.40;;;;;;5041240;28;20052;-76
2024/01/12 01:08:43;;;;;;;63.50;36.08;;;2.80;96.50;;;;;;5027911;28;20055;-76
2024/01/12 01:11:09;;;;;;;52.35;33.13;;;2.80;96.50;;;;;;5032803;28;20021;-76
2024/01/12 01:13:36;;;;;;;50.28;33.83;;;2.80;96.60;;;;;;5033967;28;20034;-75
2024/01/12 01:16:02;;;;;;;52.35;32.55;;;2.90;96.60;;;;;;5034856;28;20151;-76
2024/01/12 01:18:30;;;;;;;53.55;32.05;;;2.90;96.60;;;;;;5037041;28;20029;-76
2024/01/12 01:20:57;;;;;;;51.75;32.33;;;2.90;96.60;;;;;;5036368;28;20457;-76
2024/01/12 01:23:23;;;;;;;54.33;34.00;;;2.90;96.60;;;;;;5034319;28;20036;-75
2024/01/12 01:25:49;;;;;;;52.50;31.23;;;2.90;96.70;;;;;;5034653;28;20029;-74
2024/01/12 01:28:14;;;;;;;56.25;31.58;;;3.00;96.70;;;;;;5032615;28;20520;-77
2024/01/12 01:30:40;;;;;;;52.85;30.45;;;3.00;96.80;;;;;;5034796;28;20041;-75
2024/01/12 01:33:06;;;;;;;45.10;28.60;;;3.00;96.70;;;;;;5037589;28;20563;-75
2024/01/12 01:35:32;;;;;;;55.63;31.63;;;3.00;96.70;;;;;;5031307;28;20472;-75
2024/01/12 01:37:57;;;;;;;49.85;30.00;;;3.10;96.80;;;;;;5028320;28;20086;-75
2024/01/12 01:40:23;;;;;;;50.47;30.00;;;3.10;96.80;;;;;;5030206;28;20029;-75
2024/01/12 01:42:49;;;;;;;48.30;28.08;;;3.10;96.80;;;;;;5029932;28;20033;-76
2024/01/12 01:45:15;;;;;;;50.00;29.25;;;3.10;96.80;;;;;;5032256;28;20083;-76
2024/01/12 01:47:42;;;;;;;53.10;27.85;;;3.10;96.90;;;;;;5033029;28;20547;-77
2024/01/12 01:50:10;;;;;;;51.20;28.13;;;3.10;96.90;;;;;;5037522;28;20036;-76
2024/01/12 01:52:37;;;;;;;44.42;25.45;;;3.10;96.90;;;;;;5036748;28;20378;-76
2024/01/12 01:55:03;;;;;;;45.40;26.65;;;3.10;96.80;;;;;;5033696;28;21560;-76
2024/01/12 01:57:31;;;;;;;48.83;27.17;;;3.10;96.80;;;;;;5039646;28;20366;-76
2024/01/12 01:59:57;;;;;;;56.55;26.17;;;3.20;96.80;;;;;;5033267;28;20278;-76
2024/01/12 02:02:23;;;;;;;50.30;25.98;;;3.20;96.90;;;;;;5031167;28;20322;-77
2024/01/12 02:04:51;;;;;;;39.95;23.80;;;3.20;96.90;;;;;;5033258;28;20230;-76
2024/01/12 02:07:17;;;;;;;45.35;24.45;;;3.20;96.90;;;;;;5033424;28;20051;-76
2024/01/12 02:09:44;;;;;;;43.20;23.02;;;3.30;96.90;;;;;;5038567;28;20049;-76
2024/01/12 02:12:09;;;;;;;38.20;21.77;;;3.20;96.90;;;;;;5036381;28;20365;-77
2024/01/12 02:14:35;;;;;;;41.35;21.48;;;3.30;96.90;;;;;;5034763;28;20055;-76
2024/01/12 02:17:01;;;;;;;42.17;21.42;;;3.20;96.80;;;;;;5030863;28;20049;-76
2024/01/12 02:19:26;;;;;;;42.97;19.45;;;3.20;96.90;;;;;;5031406;28;20472;-76
2024/01/12 02:21:52;;;;;;;38.10;19.92;;;3.30;97.00;;;;;;5031052;28;20052;-76
2024/01/12 02:24:18;;;;;;;44.28;19.75;;;3.30;97.00;;;;;;5036041;28;20033;-77
2024/01/12 02:26:43;;;;;;;38.13;18.75;;;3.40;97.00;;;;;;5031583;28;20450;-76
2024/01/12 02:29:09;;;;;;;35.40;17.88;;;3.40;97.00;;;;;;5032344;28;20037;-77
2024/01/12 02:31:34;;;;;;;41.63;20.48;;;3.40;97.00;;;;;;5033396;28;20081;-77
2024/01/12 02:34:00;;;;;;;38.95;18.58;;;3.40;97.00;;;;;;5029869;28;20045;-77
2024/01/12 02:36:27;;;;;;;38.45;18.95;;;3.40;97.00;;;;;;5032408;28;20044;-77
2024/01/12 02:38:54;;;;;;;34.58;19.77;;;3.40;96.90;;;;;;5030783;28;20034;-76
2024/01/12 02:41:20;;;;;;;35.28;18.65;;;3.40;96.90;;;;;;5047437;28;20021;-76
2024/01/12 02:43:46;;;;;;;35.63;19.35;;;3.30;96.80;;;;;;5035242;28;20537;-76
2024/01/12 02:46:12;;;;;;;36.25;18.58;;;3.40;96.90;;;;;;5032346;28;20101;-77
2024/01/12 02:48:37;;;;;;;32.00;16.65;;;3.40;96.90;;;;;;5033014;28;20115;-76
2024/01/12 02:51:03;;;;;;;38.33;17.90;;;3.40;96.90;;;;;;5031871;28;20344;-76
2024/01/12 02:53:29;;;;;;;38.72;16.35;;;3.40;96.90;;;;;;5027091;28;20140;-76
2024/01/12 02:55:55;;;;;;;45.15;16.58;;;3.40;96.90;;;;;;5031634;28;20036;-76
2024/01/12 02:58:20;;;;;;;36.40;16.83;;;3.40;96.90;;;;;;5035482;28;20071;-76
2024/01/12 03:00:46;;;;;;;43.75;16.88;;;3.40;96.90;;;;;;5030423;28;20213;-77
2024/01/12 03:03:12;;;;;;;31.70;15.88;;;3.40;96.90;;;;;;5034091;28;20333;-77
2024/01/12 03:05:38;;;;;;;27.88;15.27;;;3.40;96.90;;;;;;5034676;28;20555;-76
2024/01/12 03:08:04;;;;;;;35.65;16.33;;;3.30;96.90;;;;;;5032885;28;20048;-76
2024/01/12 03:10:29;;;;;;;41.15;16.58;;;3.40;97.00;;;;;;5030179;28;20035;-76
2024/01/12 03:12:55;;;;;;;38.38;15.88;;;3.40;97.00;;;;;;5031204;28;20192;-76
2024/01/12 03:15:21;;;;;;;36.28;17.20;;;3.30;97.00;;;;;;5028024;28;20044;-76
2024/01/12 03:17:47;;;;;;;35.65;16.35;;;3.40;97.00;;;;;;5038395;28;20516;-77
2024/01/12 03:20:12;;;;;;;33.20;16.23;;;3.30;97.00;;;;;;5031194;28;20103;-76
2024/01/12 03:22:38;;;;;;;34.72;14.40;;;3.40;97.00;;;;;;5024985;28;20590;-75
2024/01/12 03:25:04;;;;;;;33.00;14.63;;;3.40;97.10;;;;;;5033273;28;20071;-78
2024/01/12 03:27:30;;;;;;;34.78;15.55;;;3.30;97.10;;;;;;5031757;28;20022;-76
2024/01/12 03:29:55;;;;;;;40.13;15.95;;;3.40;97.10;;;;;;5027737;28;20450;-76
2024/01/12 03:32:21;;;;;;;39.88;16.08;;;3.40;97.20;;;;;;5034020;28;20207;-76
2024/01/12 03:34:47;;;;;;;35.10;14.93;;;3.50;97.10;;;;;;5034609;28;20033;-76
2024/01/12 03:37:13;;;;;;;31.85;13.40;;;3.50;97.10;;;;;;5033030;28;20469;-76
2024/01/12 03:39:38;;;;;;;35.83;13.73;;;3.50;97.10;;;;;;5037102;28;20521;-76
2024/01/12 03:42:04;;;;;;;36.20;14.82;;;3.50;97.00;;;;;;5027068;28;20032;-77
2024/01/12 03:44:30;;;;;;;28.73;13.02;;;3.50;97.00;;;;;;5026159;28;20359;-77
2024/01/12 03:46:56;;;;;;;28.33;14.68;;;3.50;97.00;;;;;;5037559;28;20419;-78
2024/01/12 03:49:24;;;;;;;31.58;14.23;;;3.50;97.00;;;;;;5030699;28;20119;-77
2024/01/12 03:51:57;;;;;;;31.02;14.10;;;3.50;97.00;;;;;;5030938;28;20026;-77
2024/01/12 03:54:24;;;;;;;30.60;12.98;;;3.40;97.00;;;;;;5024323;28;20503;-76
2024/01/12 03:56:50;;;;;;;32.63;13.30;;;3.40;97.00;;;;;;5028334;28;20090;-77
2024/01/12 03:59:15;;;;;;;39.60;14.48;;;3.40;97.10;;;;;;5032149;28;20025;-76
2024/01/12 04:01:47;;;;;;;38.28;15.30;;;3.40;97.10;;;;;;5035311;28;20060;-77
2024/01/12 04:04:13;;;;;;;34.88;14.88;;;3.50;97.10;;;;;;5034280;28;20036;-76
2024/01/12 04:06:40;;;;;;;35.70;13.85;;;3.40;97.00;;;;;;5029415;28;20044;-76
2024/01/12 04:09:06;;;;;;;35.20;16.98;;;3.40;97.10;;;;;;5026539;28;20256;-76
2024/01/12 04:11:32;;;;;;;36.85;15.95;;;3.40;97.10;;;;;;5026174;28;20384;-77
2024/01/12 04:13:57;;;;;;;37.42;15.20;;;3.40;97.10;;;;;;5029863;28;20112;-76
2024/01/12 04:16:23;;;;;;;31.52;14.07;;;3.50;97.20;;;;;;5032890;28;20103;-77
2024/01/12 04:18:48;;;;;;;35.83;14.45;;;3.50;97.10;;;;;;5034900;28;20495;-76
2024/01/12 04:21:14;;;;;;;36.70;14.30;;;3.40;97.10;;;;;;5031396;28;20021;-77
2024/01/12 04:23:40;;;;;;;31.65;13.80;;;3.50;97.10;;;;;;5040442;28;20444;-77
2024/01/12 04:26:06;;;;;;;41.65;14.68;;;3.40;97.10;;;;;;5031133;28;20021;-76
2024/01/12 04:28:32;;;;;;;38.55;15.02;;;3.50;97.10;;;;;;5029568;28;20032;-76
2024/01/12 04:30:58;;;;;;;44.53;15.82;;;3.50;97.10;;;;;;5033449;28;20032;-76
2024/01/12 04:33:24;;;;;;;41.72;14.20;;;3.50;97.10;;;;;;5034833;28;20561;-76
2024/01/12 04:35:50;;;;;;;37.72;15.38;;;3.50;97.10;;;;;;5034661;28;20032;-76
2024/01/12 04:38:16;;;;;;;35.05;14.95;;;3.50;97.00;;;;;;5036898;28;20063;-76
2024/01/12 04:40:41;;;;;;;37.25;15.00;;;3.50;97.00;;;;;;5036714;28;20029;-76
2024/01/12 04:43:07;;;;;;;34.40;14.07;;;3.50;97.00;;;;;;5034761;28;20474;-76
2024/01/12 04:45:33;;;;;;;38.10;15.05;;;3.50;97.00;;;;;;5029789;28;20039;-77
2024/01/12 04:47:58;;;;;;;35.08;15.43;;;3.40;97.00;;;;;;5034600;28;20354;-78
2024/01/12 04:50:24;;;;;;;32.03;14.07;;;3.40;97.10;;;;;;5032285;28;20476;-77
2024/01/12 04:52:51;;;;;;;30.95;13.40;;;3.40;97.10;;;;;;5031893;28;20041;-78
2024/01/12 04:55:18;;;;;;;36.75;14.73;;;3.40;97.10;;;;;;5037339;28;20124;-76
2024/01/12 04:57:44;;;;;;;31.75;14.95;;;3.40;97.10;;;;;;5032159;28;20404;-76
2024/01/12 05:00:10;;;;;;;37.08;14.80;;;3.40;97.10;;;;;;5028541;28;20112;-77
2024/01/12 05:02:35;;;;;;;42.10;16.58;;;3.50;97.10;;;;;;5035766;28;20171;-76
2024/01/12 05:05:04;;;;;;;42.58;18.63;;;3.40;97.20;;;;;;5032590;28;20511;-76
2024/01/12 05:07:30;;;;;;;46.13;17.27;;;3.40;97.20;;;;;;5033041;28;20421;-76
2024/01/12 05:09:56;;;;;;;40.05;15.95;;;3.50;97.30;;;;;;5034715;28;20032;-76
2024/01/12 05:12:22;;;;;;;45.30;17.90;;;3.50;97.30;;;;;;5034601;28;20032;-76
2024/01/12 05:14:48;;;;;;;39.85;16.35;;;3.50;97.30;;;;;;5028618;28;20025;-77
2024/01/12 05:17:14;;;;;;;40.03;16.05;;;3.50;97.20;;;;;;5032776;28;20793;-77
2024/01/12 05:19:39;;;;;;;40.60;16.65;;;3.50;97.20;;;;;;5040009;28;20373;-77
2024/01/12 05:22:07;;;;;;;39.00;15.45;;;3.50;97.20;;;;;;5036876;28;20374;-78
2024/01/12 05:24:33;;;;;;;45.40;17.50;;;3.50;97.30;;;;;;5032896;28;20477;-77
2024/01/12 05:26:59;;;;;;;46.35;17.42;;;3.50;97.30;;;;;;5039084;28;20060;-77
2024/01/12 05:29:25;;;;;;;46.65;20.05;;;3.60;97.30;;;;;;5031612;28;20037;-77
2024/01/12 05:31:50;;;;;;;44.75;18.25;;;3.50;97.20;;;;;;5028849;28;20021;-77
2024/01/12 05:34:16;;;;;;;47.00;19.15;;;3.50;97.20;;;;;;5031144;28;20110;-77
2024/01/12 05:36:42;;;;;;;42.90;18.00;;;3.50;97.20;;;;;;5028221;28;20389;-77
2024/01/12 05:39:08;;;;;;;46.95;18.13;;;3.50;97.20;;;;;;5027090;28;20091;-77
2024/01/12 05:41:33;;;;;;;44.58;19.33;;;3.50;97.20;;;;;;5034646;28;20048;-77
2024/01/12 05:43:59;;;;;;;40.97;17.45;;;3.50;97.20;;;;;;5029463;28;20035;-77
2024/01/12 05:46:25;;;;;;;50.40;19.02;;;3.50;97.20;;;;;;5040431;28;20032;-76
2024/01/12 05:48:50;;;;;;;49.35;19.00;;;3.50;97.20;;;;;;5031594;28;20067;-76
2024/01/12 05:51:16;;;;;;;44.10;17.48;;;3.50;97.10;;;;;;5033641;28;20101;-76
2024/01/12 05:53:42;;;;;;;47.47;18.27;;;3.50;97.20;;;;;;5033148;28;20045;-76
2024/01/12 05:56:07;;;;;;;49.88;17.20;;;3.50;97.10;;;;;;5032891;28;20473;-76
2024/01/12 05:58:33;;;;;;;37.35;17.52;;;3.50;97.10;;;;;;5029683;28;20041;-76
2024/01/12 06:00:59;;;;;;;40.83;17.45;;;3.50;97.10;;;;;;5025495;28;20099;-76
2024/01/12 06:03:28;;;;;;;39.67;17.42;;;3.50;97.10;;;;;;5031802;28;20025;-77
2024/01/12 06:05:57;;;;;;;38.67;17.48;;;3.50;97.10;;;;;;5033775;28;20009;-77
2024/01/12 06:08:22;;;;;;;44.70;20.60;;;3.50;97.10;;;;;;5032993;28;20104;-76
2024/01/12 06:10:49;;;;;;;46.60;19.23;;;3.50;97.10;;;;;;5027032;28;20164;-76
2024/01/12 06:13:14;;;;;;;39.35;18.90;;;3.40;97.10;;;;;;5036467;28;20116;-77
2024/01/12 06:15:40;;;;;;;43.75;19.45;;;3.50;97.10;;;;;;5032958;28;20100;-77
2024/01/12 06:18:06;;;;;;;49.08;20.17;;;3.50;97.10;;;;;;5035541;28;20036;-76
2024/01/12 06:20:32;;;;;;;45.42;18.63;;;3.40;97.00;;;;;;5035452;28;20066;-77
2024/01/12 06:22:57;;;;;;;46.33;19.33;;;3.40;97.00;;;;;;5034463;28;20025;-77
2024/01/12 06:25:23;;;;;;;47.38;21.17;;;3.40;97.10;;;;;;5036184;28;20025;-77
2024/01/12 06:27:49;;;;;;;48.58;21.27;;;3.40;97.10;;;;;;5028964;28;20474;-77
2024/01/12 06:30:16;;;;;;;38.17;19.08;;;3.50;97.10;;;;;;5033174;28;20536;-77
2024/01/12 06:32:43;;;;;;;45.40;18.77;;;3.50;97.10;;;;;;5032057;28;20450;-77
2024/01/12 06:35:10;;;;;;;55.00;19.63;;;3.50;97.00;;;;;;5031858;28;20496;-77
2024/01/12 06:37:36;;;;;;;41.90;18.10;;;3.50;96.90;;;;;;5033338;28;20049;-76
2024/01/12 06:40:03;;;;;;;45.38;20.50;;;3.40;96.90;;;;;;5030322;28;20389;-77
2024/01/12 06:42:28;;;;;;;44.75;18.75;;;3.40;96.80;;;;;;5026535;28;20112;-76
2024/01/12 06:44:54;;;;;;;42.42;21.70;;;3.40;96.90;;;;;;5033493;28;20465;-76
2024/01/12 06:47:20;;;;;;;47.50;21.92;;;3.40;96.90;;;;;;5037503;28;20141;-77
2024/01/12 06:49:47;;;;;;;46.40;22.25;;;3.50;96.90;;;;;;5031300;28;20030;-76
2024/01/12 06:52:13;;;;;;;43.40;21.70;;;3.40;96.80;;;;;;5031836;28;20059;-76
2024/01/12 06:54:43;;;;;;;51.70;27.52;;;3.40;96.80;;;;;;5027179;28;20137;-76
2024/01/12 06:57:08;;;;;;;43.10;21.10;;;3.40;96.80;;;;;;5035773;28;20033;-77
2024/01/12 06:59:34;;;;;;;47.33;21.33;;;3.40;96.80;;;;;;5041689;28;20040;-76
2024/01/12 07:02:00;;;;;;;45.50;19.60;;;3.40;96.80;;;;;;5028682;28;20462;-76
2024/01/12 07:04:25;;;;;;;53.72;22.33;;;3.40;96.80;;;;;;5038935;28;20492;-78
2024/01/12 07:06:52;;;;;;;43.70;20.90;;;3.40;96.70;;;;;;5035888;28;20021;-77
2024/01/12 07:09:21;;;;;;;44.72;19.20;;;3.40;96.70;;;;;;5031865;28;20128;-76
2024/01/12 07:11:47;;;;;;;45.28;20.48;;;3.40;96.70;;;;;;5030007;28;20029;-76
2024/01/12 07:14:15;;;;;;;39.70;20.67;;;3.40;96.70;;;;;;5024159;28;20500;-76
2024/01/12 07:16:41;;;;;;;38.33;19.95;;;3.40;96.60;;;;;;5030854;28;20033;-76
2024/01/12 07:19:07;;;;;;;41.80;20.50;;;3.40;96.60;;;;;;5046738;28;20531;-76
2024/01/12 07:21:36;;;;;;;45.38;17.77;;;3.40;96.50;;;;;;5035407;28;20016;-76
2024/01/12 07:24:02;;;;;;;43.95;19.63;;;3.40;96.50;;;;;;5024655;28;20032;-76
2024/01/12 07:26:28;;;;;;;48.35;21.63;;;3.40;96.50;;;;;;5033291;28;20056;-77
2024/01/12 07:28:53;;;;;;;49.45;21.42;;;3.40;96.50;;;;;;5029631;28;20040;-77
2024/01/12 07:31:19;;;;;;;45.30;23.40;;;3.40;96.40;;;;;;5029882;28;20037;-76
2024/01/12 07:33:45;;;;;;;43.10;23.10;;;3.40;96.40;;;;;;5032107;28;20056;-77
2024/01/12 07:36:10;;;;;;;38.53;20.70;;;3.40;96.40;;;;;;5045534;28;20038;-76
2024/01/12 07:38:36;;;;;;;45.13;21.67;;;3.40;96.40;;;;;;5028552;28;20029;-76
2024/01/12 07:41:02;;;;;;;48.75;24.67;;;3.40;96.40;;;;;;5027563;28;20417;-76
2024/01/12 07:43:30;;;;;;;50.10;24.13;;;3.30;96.30;;;;;;5029728;28;20469;-77
2024/01/12 07:45:56;;;;;;;46.25;22.33;;;3.40;96.30;;;;;;5028353;28;20021;-77
2024/01/12 07:48:22;;;;;;;50.47;27.00;;;3.40;96.30;;;;;;5027028;28;20528;-77
2024/01/12 07:50:47;;;;;;;48.83;25.40;;;3.30;96.20;;;;;;5031021;28;20055;-79
2024/01/12 07:53:13;;;;;;;49.25;25.20;;;3.30;96.10;;;;;;5029112;28;20111;-79
2024/01/12 07:55:39;;;;;;;45.08;24.73;;;3.40;96.20;;;;;;5029821;28;20146;-80
2024/01/12 07:58:04;;;;;;;43.15;20.08;;;3.40;96.10;;;;;;5024664;28;20529;-78
2024/01/12 08:00:30;;;;;;;43.75;21.75;;;3.40;96.00;;;;;;5039786;28;20461;-83
2024/01/12 08:02:56;;;;;;;50.85;28.95;;;3.40;95.90;;;;;;5039894;28;20284;-78
2024/01/12 08:05:22;;;;;;;41.17;23.38;;;3.40;95.80;;;;;;5027398;28;20044;-77
2024/01/12 08:07:48;;;;;;;40.22;21.20;;;3.40;95.70;;;;;;5031338;28;20048;-78
2024/01/12 08:10:15;;;;;;;36.45;18.13;;;3.40;95.70;;;;;;5029473;28;20111;-78
2024/01/12 08:12:41;;;;;;;36.13;18.98;;;3.50;95.50;;;;;;5030921;28;20173;-78
2024/01/12 08:15:09;;;;;;;36.92;19.05;;;3.50;95.30;;;;;;5032956;28;20525;-79
2024/01/12 08:17:39;;;;;;;37.67;20.92;;;3.50;95.20;;;;;;5028510;28;20025;-78
2024/01/12 08:20:05;;;;;;;36.75;22.27;;;3.50;95.10;;;;;;5029460;28;20056;-79
2024/01/12 08:22:32;;;;;;;35.88;22.85;;;3.50;95.00;;;;;;5033679;28;20087;-78
2024/01/12 08:24:58;;;;;;;44.67;24.20;;;3.50;95.00;;;;;;5027927;28;20292;-79
2024/01/12 08:27:23;;;;;;;46.00;26.95;;;3.40;94.80;;;;;;5027493;28;20880;-79
2024/01/12 08:29:49;;;;;;;43.75;26.85;;;3.40;94.70;;;;;;5032740;28;20056;-79
2024/01/12 08:32:15;;;;;;;38.05;18.95;;;3.50;94.70;;;;;;5033221;28;20060;-80
2024/01/12 08:34:41;;;;;;;34.42;18.88;;;3.50;94.60;;;;;;5029022;28;20586;-76
2024/01/12 08:37:08;;;;;;;30.75;18.63;;;3.60;94.50;;;;;;5026847;28;20166;-79
2024/01/12 08:39:35;;;;;;;38.15;19.38;;;3.60;94.40;;;;;;5030070;28;20046;-77
2024/01/12 08:42:02;;;;;;;34.47;20.05;;;3.60;94.50;;;;;;5035574;28;20116;-76
2024/01/12 08:44:28;;;;;;;34.35;19.15;;;3.60;94.50;;;;;;5027622;28;20036;-76
2024/01/12 08:46:54;;;;;;;35.35;19.85;;;3.70;94.40;;;;;;5029532;28;20021;-77
2024/01/12 08:49:21;;;;;;;34.65;21.25;;;3.60;94.30;;;;;;5028131;28;20025;-77
2024/01/12 08:51:48;;;;;;;41.50;25.63;;;3.60;94.10;;;;;;5032933;28;20032;-76
2024/01/12 08:54:14;;;;;;;41.47;22.75;;;3.60;93.90;;;;;;5027447;28;20039;-78
2024/01/12 08:56:40;;;;;;;35.17;21.98;;;3.60;93.90;;;;;;5039611;28;20556;-76
2024/01/12 08:59:06;;;;;;;31.80;19.98;;;3.60;94.00;;;;;;5031020;28;20378;-77
2024/01/12 09:01:31;;;;;;;34.28;19.88;;;3.70;94.10;;;;;;5036965;28;20025;-76
2024/01/12 09:03:59;;;;;;;27.80;17.52;;;3.70;94.10;;;;;;5031018;28;20068;-76
2024/01/12 09:06:24;;;;;;;30.00;18.02;;;3.80;94.00;;;;;;5036376;28;20033;-76
2024/01/12 09:08:51;;;;;;;33.65;18.17;;;3.80;94.00;;;;;;5038137;28;20024;-78
2024/01/12 09:11:17;;;;;;;29.98;18.38;;;3.80;93.90;;;;;;5039160;28;20049;-79
2024/01/12 09:13:42;;;;;;;28.45;18.70;;;3.90;93.80;;;;;;5037215;28;20200;-76
2024/01/12 09:16:09;;;;;;;30.23;17.70;;;3.90;93.70;;;;;;5032338;28;20423;-78
2024/01/12 09:18:34;;;;;;;29.13;17.73;;;3.90;93.60;;;;;;5036306;28;20036;-78
2024/01/12 09:21:00;;;;;;;31.83;18.27;;;4.00;93.50;;;;;;5037595;28;20134;-78
2024/01/12 09:23:26;;;;;;;32.15;16.85;;;4.00;93.50;;;;;;5031265;28;20296;-78
2024/01/12 09:25:53;;;;;;;29.48;17.67;;;4.10;93.50;;;;;;5041276;28;20025;-78
2024/01/12 09:28:19;;;;;;;37.80;19.20;;;4.10;93.50;;;;;;5025430;28;20326;-76
2024/01/12 09:30:46;;;;;;;32.67;19.15;;;4.10;93.40;;;;;;5037150;28;20437;-76
2024/01/12 09:33:12;;;;;;;31.15;19.80;;;4.20;93.40;;;;;;5035721;28;20044;-76
2024/01/12 09:35:38;;;;;;;35.47;18.67;;;4.20;93.20;;;;;;5032434;28;20025;-77
2024/01/12 09:38:04;;;;;;;31.42;18.55;;;4.30;93.10;;;;;;5027612;28;20052;-79
2024/01/12 09:40:30;;;;;;;32.08;18.65;;;4.20;93.00;;;;;;5031516;28;20483;-78
2024/01/12 09:42:57;;;;;;;39.35;20.15;;;4.30;93.00;;;;;;5035124;28;20045;-77
2024/01/12 09:45:25;;;;;;;33.97;19.65;;;4.40;93.00;;;;;;5039542;28;20436;-78
2024/01/12 09:47:51;;;;;;;33.90;19.65;;;4.40;92.80;;;;;;5034010;28;20079;-78
2024/01/12 09:50:24;;;;;;;33.85;19.13;;;4.50;92.60;;;;;;5040579;28;20012;-79
2024/01/12 09:52:54;;;;;;;36.92;20.05;;;4.50;92.60;;;;;;5036023;28;20091;-76
2024/01/12 09:55:19;;;;;;;29.42;18.10;;;4.60;92.40;;;;;;5040595;28;20017;-78
2024/01/12 09:57:46;;;;;;;31.95;18.20;;;4.60;92.30;;;;;;5041474;28;20043;-79
2024/01/12 10:00:14;;;;;;;28.35;17.58;;;4.60;92.30;;;;;;5032447;28;20447;-77
2024/01/12 10:02:40;;;;;;;33.05;18.58;;;4.60;92.10;;;;;;5025852;28;20026;-78
2024/01/12 10:05:09;;;;;;;29.33;17.85;;;4.60;92.10;;;;;;5032627;28;20028;-78
2024/01/12 10:07:35;;;;;;;27.08;18.02;;;4.70;91.90;;;;;;5034351;28;20040;-76
2024/01/12 10:10:00;;;;;;;31.60;17.30;;;4.70;91.60;;;;;;5031631;28;20033;-77
2024/01/12 10:12:26;;;;;;;27.33;17.75;;;4.70;91.40;;;;;;5032325;28;20026;-78
2024/01/12 10:14:59;;;;;;;26.10;17.73;;;4.70;91.30;;;;;;5031526;28;20017;-78
2024/01/12 10:17:25;;;;;;;31.73;19.27;;;4.70;91.00;;;;;;5028888;28;20181;-77
2024/01/12 10:19:51;;;;;;;28.55;17.98;;;4.70;91.00;;;;;;5028978;28;20094;-74
2024/01/12 10:22:17;;;;;;;24.27;17.33;;;4.70;90.80;;;;;;5030231;28;20099;-75
2024/01/12 10:24:43;;;;;;;27.35;18.48;;;4.70;90.80;;;;;;5032247;28;20076;-77
2024/01/12 10:27:08;;;;;;;29.67;17.48;;;4.70;90.40;;;;;;5027692;28;20040;-76
2024/01/12 10:29:39;;;;;;;29.92;17.88;;;4.70;90.30;;;;;;5034322;28;20036;-75
2024/01/12 10:32:06;;;;;;;27.52;18.23;;;4.70;90.20;;;;;;5035002;28;20483;-77
2024/01/12 10:34:36;;;;;;;26.17;17.85;;;4.70;90.20;;;;;;5041066;28;20338;-76
2024/01/12 10:37:04;;;;;;;33.22;20.23;;;4.70;90.10;;;;;;5032473;28;20242;-75
2024/01/12 10:39:34;;;;;;;35.50;21.38;;;4.80;90.00;;;;;;5032000;28;20056;-76
2024/01/12 10:42:02;;;;;;;31.10;20.98;;;4.70;88.90;;;;;;5034238;28;20086;-77
2024/01/12 10:44:35;;;;;;;31.92;19.73;;;4.70;89.30;;;;;;5033004;28;20025;-78
2024/01/12 10:47:05;;;;;;;29.27;20.13;;;4.70;89.30;;;;;;5033575;28;20087;-75
2024/01/12 10:49:51;;;;;;;25.77;19.30;;;4.70;89.50;;;;;;5029870;28;20052;-75
2024/01/12 10:52:40;;;;;;;29.52;19.58;;;4.70;89.40;;;;;;5038342;28;20029;-75
2024/01/12 10:55:10;;;;;;;30.38;19.40;;;4.70;88.80;;;;;;5036821;28;20036;-76
2024/01/12 10:57:37;;;;;;;28.60;21.17;;;4.70;88.80;;;;;;5033537;28;20305;-75
2024/01/12 11:00:08;;;;;;;28.13;19.60;;;4.80;88.60;;;;;;5027899;28;20155;-77
2024/01/12 11:02:34;;;;;;;30.73;18.90;;;4.70;88.40;;;;;;5029420;28;20037;-78
2024/01/12 11:05:00;;;;;;;25.42;18.15;;;4.60;88.30;;;;;;5034835;28;20592;-77
2024/01/12 11:07:26;;;;;;;27.17;18.55;;;4.70;88.70;;;;;;5033889;28;20116;-77
2024/01/12 11:09:55;;;;;;;32.38;20.27;;;4.70;88.70;;;;;;5031674;28;20026;-78
2024/01/12 11:12:33;;;;;;;32.95;22.85;;;4.70;88.70;;;;;;5036416;28;20008;-77
2024/01/12 11:14:59;;;;;;;29.02;20.10;;;4.70;88.40;;;;;;5029422;28;20051;-75
2024/01/12 11:17:28;;;;;;;30.33;20.58;;;4.70;88.70;;;;;;5026861;28;20029;-77
2024/01/12 11:20:11;;;;;;;35.97;19.45;;;4.70;88.80;;;;;;5030863;28;20037;-77
2024/01/12 11:22:40;;;;;;;30.42;19.77;;;4.70;88.60;;;;;;5033632;28;20116;-78
2024/01/12 11:25:08;;;;;;;25.98;18.67;;;4.60;88.40;;;;;;5028027;28;20083;-78
2024/01/12 11:27:37;;;;;;;33.03;20.13;;;4.60;88.80;;;;;;5043843;28;20029;-76
2024/01/12 11:30:06;;;;;;;31.42;20.05;;;4.70;88.90;;;;;;5041294;28;20021;-77
2024/01/12 11:32:32;;;;;;;31.75;19.95;;;4.80;88.60;;;;;;5032917;28;20044;-78
2024/01/12 11:35:14;;;;;;;26.85;18.70;;;4.90;88.70;;;;;;5034337;28;20083;-76
2024/01/12 11:37:45;;;;;;;29.33;19.17;;;5.00;88.60;;;;;;5031734;28;20037;-76
2024/01/12 11:40:15;;;;;;;29.42;18.25;;;5.00;88.60;;;;;;5031447;28;20330;-77
2024/01/12 11:42:43;;;;;;;28.95;19.70;;;5.10;88.60;;;;;;5035896;28;20033;-78
2024/01/12 11:45:13;;;;;;;24.92;17.45;;;5.10;88.40;;;;;;5033793;28;20074;-79
2024/01/12 11:47:43;;;;;;;27.92;19.20;;;5.00;88.20;;;;;;5031213;28;20060;-77
2024/01/12 11:50:24;;;;;;;27.08;17.98;;;5.10;88.40;;;;;;5025693;28;20517;-79
2024/01/12 11:52:58;;;;;;;31.38;17.95;;;5.10;88.50;;;;;;5030110;28;20030;-77
2024/01/12 11:55:24;;;;;;;30.30;18.52;;;5.10;88.60;;;;;;5033792;28;20120;-77
2024/01/12 11:57:52;;;;;;;28.60;17.65;;;5.10;88.60;;;;;;5028161;28;20041;-79
2024/01/12 12:00:19;;;;;;;32.85;19.83;;;5.10;88.50;;;;;;5029791;28;20083;-78
2024/01/12 12:02:45;;;;;;;28.13;19.48;;;5.10;88.20;;;;;;5031343;28;20540;-76
2024/01/12 12:05:14;;;;;;;26.42;19.17;;;5.10;88.20;;;;;;5030430;28;20362;-78
2024/01/12 12:07:40;;;;;;;27.05;19.17;;;5.10;88.20;;;;;;5034833;28;20021;-79
2024/01/12 12:10:09;;;;;;;31.90;18.92;;;5.10;88.30;;;;;;5028843;28;20366;-76
2024/01/12 12:12:36;;;;;;;27.42;17.52;;;5.10;88.40;;;;;;5032917;28;20148;-77
2024/01/12 12:15:07;;;;;;;26.45;19.40;;;5.10;88.30;;;;;;5029034;28;20039;-77
2024/01/12 12:17:35;;;;;;;29.77;18.58;;;5.10;88.30;;;;;;5031509;28;20465;-81
2024/01/12 12:20:02;;;;;;;28.90;18.58;;;5.10;88.40;;;;;;5022097;28;20044;-78
2024/01/12 12:22:29;;;;;;;30.23;19.15;;;5.20;88.20;;;;;;5033084;28;20040;-79
2024/01/12 12:24:55;;;;;;;29.90;18.88;;;5.20;88.00;;;;;;5031577;28;20029;-77
2024/01/12 12:27:22;;;;;;;32.15;20.25;;;5.10;88.00;;;;;;5031627;28;20029;-78
2024/01/12 12:29:50;;;;;;;28.67;19.20;;;5.10;88.10;;;;;;5031082;28;20024;-80
2024/01/12 12:32:15;;;;;;;30.92;19.67;;;5.10;88.10;;;;;;5029937;28;20357;-79